METAR AND TAF INFORMATION
METAR FOR LIEA
ADDS - METARS form results

(1541 UTC 02 July 2020)
Data provider http://aviationweather.gov/metar/data/
 
METAR text: LIEA 021520Z 29014KT CAVOK 28/21 Q1012
Conditions at: LIEA (ALGHERO , IT) observed 1520 UTC 02 July 2020
Temperature: 28.0°C (82°F)
Dewpoint: 21.0°C (70°F) [RH = 66%]
Pressure (altimeter): 29.88 inches Hg (1012.0 mb)
Winds: from the WNW (290 degrees) at 16 MPH (14 knots; 7.2 m/s)
Visibility: 6 or more miles (10+ km)
Ceiling: ceiling and visibility are OK
Clouds: unknown
Weather: no significant weather observed at this time

METAR text: LIEA 021450Z 28012KT CAVOK 30/21 Q1012
Conditions at: LIEA (ALGHERO , IT) observed 1450 UTC 02 July 2020
Temperature: 30.0°C (86°F)
Dewpoint: 21.0°C (70°F) [RH = 59%]
Pressure (altimeter): 29.88 inches Hg (1012.0 mb)
Winds: from the W (280 degrees) at 14 MPH (12 knots; 6.2 m/s)
Visibility: 6 or more miles (10+ km)
Ceiling: ceiling and visibility are OK
Clouds: unknown
Weather: no significant weather observed at this time

Forecast for: LIEA (ALGHERO , IT)
Text: TAF LIEA 021100Z 0212/0312 29012KT CAVOK
Forecast period: 1200 to 1600 UTC 02 July 2020
Forecast type: FROM: standard forecast or significant change
Winds: from the WNW (290 degrees) at 14 MPH (12 knots; 6.2 m/s)
Visibility: 6 or more miles 10+ km)
Ceiling: unknown
Clouds: missing
Weather: NSW  (no significant weather)
Text: BECMG 0216/0218 VRB05KT
Forecast period: 1600 UTC 02 July 2020 to 0800 UTC 03 July 2020
Forecast type: BECOMING: Conditions expected to become as follows by 1800 UTC 02 July 2020
Winds: variable direction winds at 6 MPH (5 knots; 2.6 m/s)
Visibility: 6 or more miles 10+ km)
Ceiling: unknown
Clouds: missing
Weather: NSW  (no significant weather)
Text: BECMG 0308/0310 32015G25KT
Forecast period: 0800 to 1200 UTC 03 July 2020
Forecast type: BECOMING: Conditions expected to become as follows by 1000 UTC 03 July 2020
Winds: from the NW (320 degrees) at 17 MPH (15 knots; 7.7 m/s)
gusting to 29 MPH (25 knots; 12.9 m/s)
Visibility: 6 or more miles 10+ km)
Ceiling: unknown
Clouds: missing
Weather: NSW  (no significant weather)

 AIRPORT MAP

 RUNWAY INFORMATION
Runway 02 Runway length 9843 ft Runway width 148 ft
Runway elevation 69 ft Runway displaced threshold 0 ft Runway heading 25
Runway 20 Runway length 9843 ft Runway width 148 ft
Runway elevation 87 ft Runway displaced threshold 0 ft Runway heading 205

 AIRPORT FREQUENCIES
Type APP Name APP Frequency 128.55 MHZ
Type ATIS Name ATIS Frequency 125.025 MHZ
Type TWR Name TWR Frequency 118.85 MHZ

 AIRPORT NEAR NAVIGATION AIDS
Type TACAN Name Alghero Frequency 109300 KHZ
Type VORTAC Name Alghero Frequency 113800 KHZ
Type NDB Name Alghero Frequency 382 KHZ



Powered by Virtual Airlines Manager [v2.6.2]